Terminal Aerodrome Forecast
Issued by NWS Greer, SC

Home | Current Version | Previous Version | Text Only | Print | Product List | Glossary On
Versions: 1 2 3 4 5 6 7 8 9 10 11 12 13 14 15 16 17 18 19 20 21 22 23
000
FTUS42 KGSP 250500
TAFGSP
TAF
KGSP 250535Z 2506/2606 00000KT P6SM BKN060
     FM250900 04003KT 5SM BR BKN070
     FM251100 03004KT 4SM BR BKN020
     FM251300 03006KT P6SM BKN024
     FM251500 05007KT P6SM SCT030
     FM252000 11004KT P6SM SCT045
     FM260300 00000KT P6SM SCT045=

USA.gov is the U.S. government's official web portal to all federal, state and local government web resources and services.